< < Back
Terminal Aerodrome Forecast


Current Version              Previous Versions:   1  2  3  4  5  6  7  8  9  

Terminal Aerodrome Forecast

846
FTUS42 KGSP 162300
TAFAVL
TAF
KAVL 162333Z 1700/1724 34005KT P6SM VCTS BKN040CB
     FM170400 34005KT 4SM BR BKN015
      TEMPO 1708/1712 1/2SM FG BKN009
     FM171300 33004KT P6SM BKN030
     FM171600 33007KT P6SM SCT030=



Latest METAR

689
SAUS70 KWBC 170900 RRI
MTRAVL
METAR KAVL 170854Z AUTO 03003KT 10SM BKN019 OVC031 18/16 A3003 RMK AO2
SLP143 T01780156 58007


USA.gov is the U.S. government's official web portal to all federal, state and local government web resources and services.